createdAt,value
2017-08-26T00:00:27.281Z,87.74
2017-08-26T00:03:00.240Z,88.82
2017-08-26T00:05:27.691Z,90.17
2017-08-26T00:07:55.145Z,90.32
2017-08-26T00:10:22.620Z,92.06
2017-08-26T00:12:50.074Z,92.17
2017-08-26T00:15:17.550Z,92.03
2017-08-26T00:17:45.001Z,89.87
2017-08-26T00:20:12.452Z,90.39
2017-08-26T00:22:39.921Z,89.69
2017-08-26T00:25:07.373Z,89.51
2017-08-26T00:27:34.844Z,89.97
2017-08-26T00:30:02.294Z,90.02
2017-08-26T00:32:29.752Z,90.82
2017-08-26T00:34:57.221Z,90.51
2017-08-26T00:37:24.851Z,89.99
2017-08-26T00:39:52.304Z,90.31
2017-08-26T00:42:19.781Z,89.91
2017-08-26T00:44:47.226Z,89.23
2017-08-26T00:47:14.704Z,88.88
2017-08-26T00:49:42.158Z,89.12
2017-08-26T00:52:09.609Z,88.53
2017-08-26T00:54:37.078Z,88.68
2017-08-26T00:57:04.548Z,89.21
2017-08-26T00:59:32.260Z,89.35
2017-08-26T01:01:59.713Z,89.41
2017-08-26T01:04:27.185Z,91.13
2017-08-26T01:07:00.174Z,90.16
2017-08-26T01:09:27.650Z,90.88
2017-08-26T01:11:55.113Z,91.68
2017-08-26T01:14:22.585Z,91.76
2017-08-26T01:16:50.042Z,90.65
2017-08-26T01:19:17.521Z,91.50
2017-08-26T01:21:44.964Z,94.29
2017-08-26T01:24:12.413Z,92.96
2017-08-26T01:26:39.882Z,92.50
2017-08-26T01:29:07.329Z,92.87
2017-08-26T01:31:34.790Z,91.94
2017-08-26T01:34:02.274Z,92.43
2017-08-26T01:36:29.729Z,95.23
2017-08-26T01:38:57.180Z,96.17
2017-08-26T01:41:24.894Z,95.12
2017-08-26T01:43:52.336Z,94.38
2017-08-26T01:46:19.785Z,93.21
2017-08-26T01:48:47.276Z,95.66
2017-08-26T01:51:14.734Z,96.23
2017-08-26T01:53:42.186Z,96.46
2017-08-26T01:56:09.661Z,95.59
2017-08-26T01:58:37.122Z,94.56
2017-08-26T02:01:04.601Z,96.42
2017-08-26T02:03:32.052Z,95.36
2017-08-26T02:05:59.535Z,93.96
2017-08-26T02:08:26.996Z,94.14
2017-08-26T02:10:54.464Z,95.33
2017-08-26T02:13:21.928Z,94.92
2017-08-26T02:15:49.385Z,94.24
2017-08-26T02:18:16.857Z,96.19
2017-08-26T02:20:44.308Z,95.04
2017-08-26T02:23:12.006Z,94.32
2017-08-26T02:25:39.456Z,95.11
2017-08-26T02:28:06.913Z,96.48
2017-08-26T02:30:34.394Z,96.23
2017-08-26T02:33:01.869Z,93.32
2017-08-26T02:35:29.316Z,94.14
2017-08-26T02:37:56.787Z,92.74
2017-08-26T02:40:24.268Z,93.66
2017-08-26T02:42:51.716Z,94.56
2017-08-26T02:45:19.192Z,95.01
2017-08-26T02:47:46.672Z,95.36
2017-08-26T02:50:14.169Z,94.25
2017-08-26T02:52:41.829Z,94.19
2017-08-26T02:55:09.284Z,95.45
2017-08-26T02:57:36.740Z,96.15
2017-08-26T03:00:04.229Z,97.91
2017-08-26T03:02:31.680Z,97.71
2017-08-26T03:04:59.137Z,94.89
2017-08-26T03:07:26.598Z,94.22
2017-08-26T03:09:54.045Z,94.70
2017-08-26T03:12:21.517Z,94.64
2017-08-26T03:14:48.977Z,96.09
2017-08-26T03:17:16.462Z,95.33
2017-08-26T03:19:43.936Z,96.99
2017-08-26T03:22:11.409Z,97.88
2017-08-26T03:24:38.881Z,98.48
2017-08-26T03:27:06.328Z,98.67
2017-08-26T03:29:33.807Z,97.60
2017-08-26T03:32:01.291Z,96.51
2017-08-26T03:34:28.736Z,95.05
2017-08-26T03:36:56.188Z,94.71
2017-08-26T03:39:23.658Z,94.46
2017-08-26T03:41:51.141Z,93.98
2017-08-26T03:44:18.589Z,94.12
2017-08-26T03:46:46.036Z,95.16
2017-08-26T03:49:13.510Z,94.28
2017-08-26T03:51:40.981Z,95.29
2017-08-26T03:54:08.438Z,95.87
2017-08-26T03:56:35.917Z,96.08
2017-08-26T03:59:03.415Z,96.21
2017-08-26T04:01:30.870Z,96.22
2017-08-26T04:03:58.333Z,96.41
2017-08-26T04:06:25.817Z,94.99
2017-08-26T04:08:53.260Z,94.41
2017-08-26T04:11:20.742Z,92.96
2017-08-26T04:13:48.189Z,93.20
2017-08-26T04:16:15.644Z,95.48
2017-08-26T04:18:43.116Z,94.30
2017-08-26T04:21:10.570Z,95.04
2017-08-26T04:23:38.045Z,96.26
2017-08-26T04:26:05.500Z,98.34
2017-08-26T04:28:32.985Z,99.21
2017-08-26T04:31:00.472Z,99.09
2017-08-26T04:33:27.922Z,99.46
2017-08-26T04:35:55.402Z,98.72
2017-08-26T04:38:22.850Z,99.12
2017-08-26T04:40:50.298Z,99.53
2017-08-26T04:43:17.776Z,99.71
2017-08-26T04:45:45.234Z,99.04
2017-08-26T04:48:12.711Z,98.43
2017-08-26T04:50:40.160Z,98.28
2017-08-26T04:53:07.609Z,99.08
2017-08-26T04:55:35.085Z,98.32
2017-08-26T04:58:02.565Z,98.61
2017-08-26T05:00:30.045Z,97.75
2017-08-26T05:02:57.501Z,96.09
2017-08-26T05:05:25.054Z,97.19
2017-08-26T05:07:52.529Z,97.70
2017-08-26T05:10:20.005Z,97.60
2017-08-26T05:12:47.498Z,97.64
2017-08-26T05:15:15.110Z,97.12
2017-08-26T05:17:42.568Z,97.01
2017-08-26T05:20:10.021Z,97.03
2017-08-26T05:22:37.494Z,95.86
2017-08-26T05:25:04.956Z,96.00
2017-08-26T05:27:32.446Z,95.90
2017-08-26T05:29:59.899Z,96.39
2017-08-26T05:32:27.361Z,95.93
2017-08-26T05:34:54.833Z,93.90
2017-08-26T05:37:22.294Z,97.37
2017-08-26T05:39:49.748Z,96.63
2017-08-26T05:42:17.226Z,95.04
2017-08-26T05:44:44.676Z,94.14
2017-08-26T05:47:12.159Z,95.80
2017-08-26T05:49:39.618Z,95.29
2017-08-26T05:52:07.088Z,93.79
2017-08-26T05:54:34.540Z,96.13
2017-08-26T05:57:02.013Z,95.53
2017-08-26T05:59:29.466Z,96.10
2017-08-26T06:01:56.918Z,96.55
2017-08-26T06:04:24.394Z,95.58
2017-08-26T06:06:51.848Z,94.71
2017-08-26T06:09:19.337Z,93.12
2017-08-26T06:11:46.788Z,93.05
2017-08-26T06:14:14.244Z,93.02
2017-08-26T06:16:41.716Z,93.72
2017-08-26T06:19:09.173Z,93.30
2017-08-26T06:21:36.635Z,92.45
2017-08-26T06:24:04.104Z,93.69
2017-08-26T06:26:31.562Z,94.43
2017-08-26T06:28:59.033Z,92.35
2017-08-26T06:31:26.488Z,92.32
2017-08-26T06:33:53.956Z,92.47
2017-08-26T06:36:21.409Z,93.06
2017-08-26T06:38:48.898Z,91.95
2017-08-26T06:41:16.369Z,91.20
2017-08-26T06:43:43.845Z,91.65
2017-08-26T06:46:11.322Z,90.17
2017-08-26T06:48:38.805Z,89.97
2017-08-26T06:51:06.270Z,89.56
2017-08-26T06:53:33.742Z,89.46
2017-08-26T06:56:01.380Z,90.86
2017-08-26T06:58:28.836Z,90.12
2017-08-26T07:00:56.307Z,89.34
2017-08-26T07:03:23.757Z,87.02
2017-08-26T07:05:51.233Z,88.41
2017-08-26T07:08:18.688Z,89.24
2017-08-26T07:10:46.164Z,87.55
2017-08-26T07:13:13.644Z,84.95
2017-08-26T07:15:41.125Z,87.57
2017-08-26T07:18:08.608Z,87.36
2017-08-26T07:20:36.072Z,86.05
2017-08-26T07:23:03.541Z,86.16
2017-08-26T07:25:30.993Z,84.85
2017-08-26T07:27:58.466Z,84.12
2017-08-26T07:30:25.921Z,84.42
2017-08-26T07:32:53.393Z,84.04
2017-08-26T07:38:51.009Z,82.48
2017-08-26T07:41:18.472Z,81.05
2017-08-26T07:43:45.958Z,81.04
2017-08-26T07:46:13.418Z,81.03
2017-08-26T07:48:40.900Z,80.52
2017-08-26T07:51:08.354Z,80.60
2017-08-26T07:53:35.808Z,79.52
2017-08-26T07:56:03.290Z,78.87
2017-08-26T07:58:30.747Z,77.40
2017-08-26T08:00:58.226Z,74.92
2017-08-26T08:03:25.673Z,74.32
2017-08-26T08:05:53.125Z,75.19
2017-08-26T08:08:20.589Z,73.63
2017-08-26T08:10:48.045Z,74.27
2017-08-26T08:13:15.529Z,72.57
2017-08-26T08:15:42.974Z,72.06
2017-08-26T08:18:10.429Z,72.41
2017-08-26T08:20:37.892Z,72.23
2017-08-26T08:23:05.345Z,72.80
2017-08-26T08:25:32.826Z,74.22
2017-08-26T08:28:00.280Z,72.00
2017-08-26T08:30:27.750Z,72.85
2017-08-26T08:32:55.262Z,71.54
2017-08-26T08:35:22.721Z,71.56
2017-08-26T08:37:50.189Z,70.13
2017-08-26T08:40:17.657Z,69.58
2017-08-26T08:42:45.129Z,70.58
2017-08-26T08:45:12.593Z,69.84
2017-08-26T08:47:40.064Z,69.19
2017-08-26T08:50:07.511Z,67.97
2017-08-26T08:52:35.003Z,69.24
2017-08-26T08:55:02.468Z,66.44
2017-08-26T08:57:29.924Z,66.15
2017-08-26T08:59:57.397Z,64.03
2017-08-26T09:02:24.853Z,64.27
2017-08-26T09:04:52.300Z,65.15
2017-08-26T09:07:19.765Z,63.90
2017-08-26T09:09:47.237Z,64.99
2017-08-26T09:12:14.708Z,63.82
2017-08-26T09:14:42.183Z,65.31
2017-08-26T09:17:09.638Z,64.04
2017-08-26T09:19:37.101Z,63.87
2017-08-26T09:22:04.568Z,63.42
2017-08-26T09:24:32.019Z,63.22
2017-08-26T09:26:59.493Z,63.88
2017-08-26T09:29:26.969Z,63.62
2017-08-26T09:31:54.424Z,62.34
2017-08-26T09:34:21.897Z,61.56
2017-08-26T09:36:49.349Z,63.37
2017-08-26T09:39:16.817Z,63.58
2017-08-26T09:41:44.265Z,61.80
2017-08-26T09:44:11.733Z,61.28
2017-08-26T09:46:39.206Z,60.23
2017-08-26T09:49:06.797Z,59.47
2017-08-26T09:51:34.277Z,59.36
2017-08-26T09:54:01.748Z,59.40
2017-08-26T09:56:29.199Z,57.45
2017-08-26T09:58:56.664Z,56.35
2017-08-26T10:01:24.123Z,56.21
2017-08-26T10:03:51.835Z,53.69
2017-08-26T10:06:19.274Z,56.53
2017-08-26T10:08:46.728Z,55.27
2017-08-26T10:11:14.201Z,56.20
2017-08-26T10:13:41.661Z,55.34
2017-08-26T10:16:09.237Z,55.70
2017-08-26T10:18:36.682Z,54.68
2017-08-26T10:21:04.134Z,55.44
2017-08-26T10:23:31.602Z,54.13
2017-08-26T10:25:59.068Z,55.83
2017-08-26T10:28:26.517Z,55.97
2017-08-26T10:30:53.984Z,52.95
2017-08-26T10:33:21.434Z,54.52
2017-08-26T10:35:48.929Z,53.29
2017-08-26T10:38:16.385Z,52.52
2017-08-26T10:40:44.876Z,51.50
2017-08-26T10:43:12.327Z,51.70
2017-08-26T10:45:39.801Z,52.99
2017-08-26T10:48:07.270Z,48.58
2017-08-26T10:50:34.732Z,48.71
2017-08-26T10:53:02.204Z,49.14
2017-08-26T10:55:29.649Z,49.44
2017-08-26T10:57:57.137Z,50.30
2017-08-26T11:00:24.586Z,48.68
2017-08-26T11:02:52.036Z,47.01
2017-08-26T11:05:19.824Z,48.98
2017-08-26T11:07:47.282Z,49.04
2017-08-26T11:10:14.728Z,46.84
2017-08-26T11:12:42.204Z,48.87
2017-08-26T11:15:09.649Z,48.97
2017-08-26T11:17:37.117Z,47.78
2017-08-26T11:20:04.582Z,48.62
2017-08-26T11:22:32.054Z,46.74
2017-08-26T11:24:59.501Z,45.96
2017-08-26T11:27:26.961Z,46.73
2017-08-26T11:29:54.422Z,46.61
2017-08-26T11:32:21.870Z,45.17
2017-08-26T11:34:49.341Z,44.54
2017-08-26T11:37:16.805Z,43.60
2017-08-26T11:39:44.262Z,43.86
2017-08-26T11:42:11.737Z,42.26
2017-08-26T11:44:39.184Z,42.62
2017-08-26T11:47:06.657Z,41.47
2017-08-26T11:49:34.140Z,40.16
2017-08-26T11:52:01.587Z,40.96
2017-08-26T11:54:29.024Z,38.00
2017-08-26T11:56:56.494Z,39.18
2017-08-26T11:59:23.968Z,41.26
2017-08-26T12:01:51.414Z,41.97
2017-08-26T12:04:18.896Z,38.58
2017-08-26T12:06:46.361Z,37.89
2017-08-26T12:09:13.841Z,36.68
2017-08-26T12:11:41.285Z,34.58
2017-08-26T12:14:08.736Z,35.89
2017-08-26T12:16:36.206Z,34.80
2017-08-26T12:19:03.652Z,40.38
2017-08-26T12:21:31.111Z,35.83
2017-08-26T12:23:58.548Z,35.33
2017-08-26T12:26:26.103Z,34.06
2017-08-26T12:28:53.572Z,34.20
2017-08-26T12:31:21.041Z,34.23
2017-08-26T12:33:48.478Z,37.25
2017-08-26T12:36:15.914Z,32.14
2017-08-26T12:38:43.381Z,33.00
2017-08-26T12:41:10.824Z,33.68
2017-08-26T12:43:38.282Z,32.27
2017-08-26T12:46:05.756Z,35.27
2017-08-26T12:48:33.203Z,36.18
2017-08-26T12:51:00.673Z,31.53
2017-08-26T12:53:28.118Z,34.99
2017-08-26T12:55:55.561Z,31.43
2017-08-26T12:58:23.034Z,35.53
2017-08-26T13:00:50.473Z,37.05
2017-08-26T13:03:17.915Z,37.21
2017-08-26T13:05:45.386Z,38.30
2017-08-26T13:08:12.830Z,34.11
2017-08-26T13:10:40.296Z,36.22
2017-08-26T13:13:07.739Z,35.42
2017-08-26T13:15:35.212Z,31.58
2017-08-26T13:18:02.661Z,34.82
2017-08-26T13:20:30.222Z,31.46
2017-08-26T13:22:57.674Z,34.43
2017-08-26T13:25:25.144Z,30.58
2017-08-26T13:27:52.581Z,36.74
2017-08-26T13:30:20.060Z,31.23
2017-08-26T13:32:47.507Z,34.08
2017-08-26T13:35:14.961Z,34.09
2017-08-26T13:37:42.437Z,32.42
2017-08-26T13:40:09.876Z,33.90
2017-08-26T13:42:37.347Z,31.80
2017-08-26T13:45:04.794Z,31.23
2017-08-26T13:47:32.239Z,31.72
2017-08-26T13:49:59.709Z,34.58
2017-08-26T13:52:27.177Z,32.93
2017-08-26T13:54:54.622Z,35.82
2017-08-26T13:57:22.070Z,34.95
2017-08-26T13:59:49.535Z,34.54
2017-08-26T14:02:17.302Z,29.63
2017-08-26T14:04:44.741Z,28.51
2017-08-26T14:07:12.186Z,30.34
2017-08-26T14:09:39.662Z,30.15
2017-08-26T14:12:07.188Z,34.31
2017-08-26T14:14:34.662Z,33.93
2017-08-26T14:17:02.111Z,30.88
2017-08-26T14:19:29.574Z,34.07
2017-08-26T14:21:57.024Z,30.51
2017-08-26T14:24:24.473Z,32.32
2017-08-26T14:26:51.956Z,31.79
2017-08-26T14:29:19.423Z,30.16
2017-08-26T14:31:46.871Z,31.80
2017-08-26T14:34:14.335Z,37.05
2017-08-26T14:36:41.813Z,35.30
2017-08-26T14:39:09.410Z,34.50
2017-08-26T14:41:36.860Z,30.47
2017-08-26T14:44:04.329Z,33.32
2017-08-26T14:46:31.797Z,28.91
2017-08-26T14:48:59.240Z,30.56
2017-08-26T14:51:26.715Z,32.60
2017-08-26T14:53:54.173Z,32.28
2017-08-26T14:56:21.621Z,31.70
2017-08-26T14:58:49.133Z,33.67
2017-08-26T15:01:16.614Z,34.95
2017-08-26T15:03:44.054Z,34.10
2017-08-26T15:06:11.494Z,34.05
2017-08-26T15:08:39.341Z,34.55
2017-08-26T15:11:06.787Z,34.00
2017-08-26T15:13:34.236Z,34.14
2017-08-26T15:16:01.716Z,35.38
2017-08-26T15:18:29.172Z,33.19
2017-08-26T15:20:56.648Z,33.71
2017-08-26T15:23:24.103Z,31.24
2017-08-26T15:25:51.714Z,32.59
2017-08-26T15:28:19.157Z,32.21
2017-08-26T15:30:46.618Z,30.96
2017-08-26T15:33:14.104Z,33.09
2017-08-26T15:35:41.548Z,34.41
2017-08-26T15:38:09.021Z,34.41
2017-08-26T15:40:36.474Z,34.56
2017-08-26T15:43:03.922Z,35.91
2017-08-26T15:45:31.398Z,35.46
2017-08-26T15:47:58.842Z,35.46
2017-08-26T15:50:26.286Z,32.33
2017-08-26T15:52:53.762Z,36.12
2017-08-26T15:55:21.222Z,32.58
2017-08-26T15:57:48.666Z,33.25
2017-08-26T16:00:16.142Z,36.91
2017-08-26T16:02:43.585Z,34.50
2017-08-26T16:05:11.057Z,36.44
2017-08-26T16:07:38.532Z,36.47
2017-08-26T16:10:05.989Z,38.32
2017-08-26T16:12:33.453Z,38.25
2017-08-26T16:15:00.933Z,36.86
2017-08-26T16:17:28.390Z,37.43
2017-08-26T16:19:55.853Z,38.54
2017-08-26T16:22:23.321Z,38.93
2017-08-26T16:24:50.801Z,39.67
2017-08-26T16:27:18.662Z,39.86
2017-08-26T16:29:46.113Z,41.23
2017-08-26T16:32:13.561Z,43.79
2017-08-26T16:34:41.025Z,45.02
2017-08-26T16:37:08.492Z,44.30
2017-08-26T16:39:35.937Z,43.95
2017-08-26T16:42:03.737Z,46.94
2017-08-26T16:44:31.184Z,46.39
2017-08-26T16:46:58.634Z,47.65
2017-08-26T16:49:26.107Z,48.47
2017-08-26T16:51:53.622Z,47.94
2017-08-26T16:54:21.080Z,46.87
2017-08-26T16:56:48.577Z,45.72
2017-08-26T16:59:16.028Z,45.19
2017-08-26T17:01:43.502Z,48.01
2017-08-26T17:04:10.966Z,48.04
2017-08-26T17:06:38.446Z,50.03
2017-08-26T17:09:05.895Z,50.30
2017-08-26T17:11:33.381Z,51.77
2017-08-26T17:14:00.843Z,51.04
2017-08-26T17:16:28.303Z,50.90
2017-08-26T17:18:55.783Z,52.10
2017-08-26T17:21:23.240Z,52.26
2017-08-26T17:23:50.696Z,51.60
2017-08-26T17:26:18.162Z,52.96
2017-08-26T17:28:45.629Z,52.78
2017-08-26T17:31:13.110Z,53.26
2017-08-26T17:33:40.556Z,54.59
2017-08-26T17:36:08.025Z,55.29
2017-08-26T17:38:35.493Z,56.72
2017-08-26T17:41:02.963Z,56.23
2017-08-26T17:43:30.413Z,56.20
2017-08-26T17:45:57.906Z,56.52
2017-08-26T17:48:25.354Z,56.61
2017-08-26T17:50:52.809Z,57.31
2017-08-26T17:53:20.274Z,57.85
2017-08-26T17:55:47.755Z,58.54
2017-08-26T17:58:15.241Z,58.69
2017-08-26T18:00:42.704Z,59.38
2017-08-26T18:03:10.185Z,59.88
2017-08-26T18:05:37.641Z,60.24
2017-08-26T18:08:05.122Z,60.28
2017-08-26T18:10:32.575Z,61.93
2017-08-26T18:13:00.057Z,63.55
2017-08-26T18:15:27.513Z,63.16
2017-08-26T18:17:54.991Z,63.45
2017-08-26T18:20:22.757Z,64.53
2017-08-26T18:22:50.213Z,64.77
2017-08-26T18:25:17.674Z,65.50
2017-08-26T18:27:45.154Z,65.46
2017-08-26T18:30:12.611Z,65.54
2017-08-26T18:32:40.052Z,66.75
2017-08-26T18:35:07.551Z,66.88
2017-08-26T18:37:35.005Z,67.58
2017-08-26T18:40:02.456Z,67.58
2017-08-26T18:42:30.199Z,68.78
2017-08-26T18:44:57.655Z,69.36
2017-08-26T18:47:25.121Z,71.26
2017-08-26T18:49:52.594Z,71.09
2017-08-26T18:52:20.041Z,70.78
2017-08-26T18:54:47.540Z,72.27
2017-08-26T18:57:14.998Z,71.50
2017-08-26T18:59:42.498Z,72.57
2017-08-26T19:02:09.950Z,72.11
2017-08-26T19:04:37.421Z,72.05
2017-08-26T19:07:04.899Z,71.67
2017-08-26T19:09:32.361Z,71.91
2017-08-26T19:11:59.828Z,71.41
2017-08-26T19:14:27.307Z,71.08
2017-08-26T19:16:54.774Z,72.34
2017-08-26T19:19:22.254Z,72.47
2017-08-26T19:21:49.712Z,72.02
2017-08-26T19:24:17.194Z,72.50
2017-08-26T19:26:44.654Z,73.52
2017-08-26T19:29:12.105Z,74.41
2017-08-26T19:31:39.585Z,74.91
2017-08-26T19:34:07.048Z,74.95
2017-08-26T19:36:34.498Z,74.04
2017-08-26T19:39:01.978Z,74.38
2017-08-26T19:41:29.456Z,76.65
2017-08-26T19:43:56.904Z,77.34
2017-08-26T19:46:24.377Z,76.92
2017-08-26T19:48:51.861Z,75.70
2017-08-26T19:51:19.324Z,76.53
2017-08-26T19:53:46.793Z,75.79
2017-08-26T19:56:14.261Z,76.26
2017-08-26T19:58:41.717Z,76.96
2017-08-26T20:01:09.201Z,75.50
2017-08-26T20:03:36.679Z,75.12
2017-08-26T20:06:04.157Z,76.32
2017-08-26T20:08:31.695Z,75.23
2017-08-26T20:10:59.147Z,78.94
2017-08-26T20:13:26.634Z,78.00
2017-08-26T20:15:54.092Z,77.59
2017-08-26T20:18:21.548Z,77.96
2017-08-26T20:20:49.055Z,76.87
2017-08-26T20:23:16.539Z,76.18
2017-08-26T20:25:44.025Z,77.38
2017-08-26T20:28:11.481Z,76.99
2017-08-26T20:30:38.946Z,77.34
2017-08-26T20:33:06.425Z,77.18
2017-08-26T20:35:33.883Z,77.00
2017-08-26T20:38:01.337Z,76.60
2017-08-26T20:40:28.805Z,78.31
2017-08-26T20:42:56.252Z,77.43
2017-08-26T20:45:23.730Z,76.76
2017-08-26T20:47:51.207Z,77.39
2017-08-26T20:50:18.669Z,77.60
2017-08-26T20:52:46.151Z,78.80
2017-08-26T20:55:13.603Z,81.52
2017-08-26T20:57:41.084Z,76.45
2017-08-26T21:00:08.550Z,77.37
2017-08-26T21:02:36.012Z,76.88
2017-08-26T21:05:03.493Z,77.74
2017-08-26T21:07:30.952Z,77.27
2017-08-26T21:09:58.424Z,77.37
2017-08-26T21:12:25.877Z,77.92
2017-08-26T21:14:53.335Z,76.73
2017-08-26T21:17:20.809Z,76.67
2017-08-26T21:19:48.288Z,78.21
2017-08-26T21:22:15.769Z,77.20
2017-08-26T21:24:43.312Z,76.12
2017-08-26T21:33:54.070Z,70.55
2017-08-26T21:36:21.520Z,71.80
2017-08-26T21:38:48.961Z,71.44
2017-08-26T21:41:16.442Z,68.68
2017-08-26T21:43:43.881Z,66.25
2017-08-26T21:46:11.352Z,65.86
2017-08-26T21:48:38.793Z,64.12
2017-08-26T21:51:06.238Z,65.27
2017-08-26T21:53:33.717Z,63.82
2017-08-26T21:56:01.186Z,64.76
2017-08-26T21:58:28.669Z,63.68
2017-08-26T22:00:56.414Z,63.41
2017-08-26T22:03:23.861Z,63.84
2017-08-26T22:05:51.368Z,63.67
2017-08-26T22:08:18.806Z,64.25
2017-08-26T22:10:46.306Z,62.84
2017-08-26T22:13:13.757Z,63.07
2017-08-26T22:15:41.222Z,62.32
2017-08-26T22:18:08.690Z,63.06
2017-08-26T22:20:36.169Z,60.96
2017-08-26T22:23:03.611Z,60.81
2017-08-26T22:25:31.097Z,60.20
2017-08-26T22:27:58.565Z,57.86
2017-08-26T22:30:26.026Z,59.44
2017-08-26T22:32:53.488Z,67.54
2017-08-26T22:35:20.937Z,63.83
2017-08-26T22:37:48.410Z,64.60
2017-08-26T22:40:15.861Z,64.95
2017-08-26T22:42:43.468Z,63.86
2017-08-26T22:45:10.910Z,63.46
2017-08-26T22:47:38.358Z,66.69
2017-08-26T22:50:05.825Z,67.50
2017-08-26T22:52:33.265Z,71.89
2017-08-26T22:55:00.720Z,72.41
2017-08-26T22:57:28.186Z,75.65
2017-08-26T22:59:55.644Z,73.88
2017-08-26T23:02:23.113Z,74.21
2017-08-26T23:04:50.709Z,75.81
2017-08-26T23:07:18.170Z,74.18
2017-08-26T23:09:45.627Z,71.82
2017-08-26T23:12:13.085Z,72.60
2017-08-26T23:14:40.537Z,71.30
2017-08-26T23:17:07.981Z,70.23
2017-08-26T23:19:35.453Z,73.24
2017-08-26T23:22:03.291Z,75.71
2017-08-26T23:24:30.745Z,77.10
2017-08-26T23:26:58.210Z,75.66
2017-08-26T23:29:25.674Z,72.70
2017-08-26T23:31:53.293Z,72.10
2017-08-26T23:34:20.741Z,71.01
2017-08-26T23:36:48.198Z,70.37
2017-08-26T23:39:15.644Z,70.39
2017-08-26T23:41:43.111Z,70.05
2017-08-26T23:44:10.577Z,69.87
2017-08-26T23:46:38.118Z,70.37
2017-08-26T23:49:05.594Z,69.75
2017-08-26T23:51:33.075Z,70.82
2017-08-26T23:54:00.527Z,70.55
2017-08-26T23:56:27.974Z,71.35
2017-08-26T23:58:55.439Z,71.81
